sensor_id;sensor_type;location;lat;lon;timestamp;temperature;humidity
56240;DHT22;42154;51.992;5.896;2023-10-31T00:01:24;12.00;99.90
56240;DHT22;42154;51.992;5.896;2023-10-31T00:03:49;12.00;99.90
56240;DHT22;42154;51.992;5.896;2023-10-31T00:06:15;11.90;99.90
56240;DHT22;42154;51.992;5.896;2023-10-31T00:08:41;11.90;99.90
56240;DHT22;42154;51.992;5.896;2023-10-31T00:11:06;11.80;99.90
56240;DHT22;42154;51.992;5.896;2023-10-31T00:13:32;11.80;99.90
56240;DHT22;42154;51.992;5.896;2023-10-31T00:15:58;11.80;99.90
56240;DHT22;42154;51.992;5.896;2023-10-31T00:18:24;11.70;99.90
56240;DHT22;42154;51.992;5.896;2023-10-31T00:20:49;11.70;99.90
56240;DHT22;42154;51.992;5.896;2023-10-31T00:23:15;11.60;99.90
56240;DHT22;42154;51.992;5.896;2023-10-31T00:25:41;11.60;99.90
56240;DHT22;42154;51.992;5.896;2023-10-31T00:28:07;11.60;99.90
56240;DHT22;42154;51.992;5.896;2023-10-31T00:30:33;11.60;99.90
56240;DHT22;42154;51.992;5.896;2023-10-31T00:32:59;11.50;99.90
56240;DHT22;42154;51.992;5.896;2023-10-31T00:35:25;11.50;99.90
56240;DHT22;42154;51.992;5.896;2023-10-31T00:37:51;11.50;99.90
56240;DHT22;42154;51.992;5.896;2023-10-31T00:40:17;11.50;99.90
56240;DHT22;42154;51.992;5.896;2023-10-31T00:42:43;11.50;99.90
56240;DHT22;42154;51.992;5.896;2023-10-31T00:45:09;11.50;99.90
56240;DHT22;42154;51.992;5.896;2023-10-31T00:47:35;11.50;99.90
56240;DHT22;42154;51.992;5.896;2023-10-31T00:50:02;11.50;99.90
56240;DHT22;42154;51.992;5.896;2023-10-31T00:52:28;11.50;99.90
56240;DHT22;42154;51.992;5.896;2023-10-31T00:54:54;11.50;99.90
56240;DHT22;42154;51.992;5.896;2023-10-31T00:57:20;11.40;99.90
56240;DHT22;42154;51.992;5.896;2023-10-31T00:59:46;11.40;99.90
56240;DHT22;42154;51.992;5.896;2023-10-31T01:02:12;11.40;99.90
56240;DHT22;42154;51.992;5.896;2023-10-31T01:04:37;11.40;99.90
56240;DHT22;42154;51.992;5.896;2023-10-31T01:07:04;11.30;99.90
56240;DHT22;42154;51.992;5.896;2023-10-31T01:09:30;11.30;99.90
56240;DHT22;42154;51.992;5.896;2023-10-31T01:11:55;11.30;99.90
56240;DHT22;42154;51.992;5.896;2023-10-31T01:14:21;11.30;99.90
56240;DHT22;42154;51.992;5.896;2023-10-31T01:16:47;11.30;99.90
56240;DHT22;42154;51.992;5.896;2023-10-31T01:19:13;11.30;99.90
56240;DHT22;42154;51.992;5.896;2023-10-31T01:21:39;11.30;99.90
56240;DHT22;42154;51.992;5.896;2023-10-31T01:24:05;11.30;99.90
56240;DHT22;42154;51.992;5.896;2023-10-31T01:26:30;11.30;99.90
56240;DHT22;42154;51.992;5.896;2023-10-31T01:28:56;11.30;99.90
56240;DHT22;42154;51.992;5.896;2023-10-31T01:31:23;11.30;99.90
56240;DHT22;42154;51.992;5.896;2023-10-31T01:33:49;11.30;99.90
56240;DHT22;42154;51.992;5.896;2023-10-31T01:36:15;11.30;99.90
56240;DHT22;42154;51.992;5.896;2023-10-31T01:38:41;11.30;99.90
56240;DHT22;42154;51.992;5.896;2023-10-31T01:41:07;11.40;99.90
56240;DHT22;42154;51.992;5.896;2023-10-31T01:43:35;11.40;99.90
56240;DHT22;42154;51.992;5.896;2023-10-31T01:46:02;11.30;99.90
56240;DHT22;42154;51.992;5.896;2023-10-31T01:48:30;11.40;99.90
56240;DHT22;42154;51.992;5.896;2023-10-31T01:50:59;11.40;99.90
56240;DHT22;42154;51.992;5.896;2023-10-31T01:53:28;11.30;99.90
56240;DHT22;42154;51.992;5.896;2023-10-31T01:55:55;11.40;99.90
56240;DHT22;42154;51.992;5.896;2023-10-31T01:58:27;11.40;99.90
56240;DHT22;42154;51.992;5.896;2023-10-31T02:00:55;11.40;99.90
56240;DHT22;42154;51.992;5.896;2023-10-31T02:03:21;11.40;99.90
56240;DHT22;42154;51.992;5.896;2023-10-31T02:05:47;11.40;99.90
56240;DHT22;42154;51.992;5.896;2023-10-31T02:08:13;11.40;99.90
56240;DHT22;42154;51.992;5.896;2023-10-31T02:10:38;11.40;99.90
56240;DHT22;42154;51.992;5.896;2023-10-31T02:13:15;11.50;99.90
56240;DHT22;42154;51.992;5.896;2023-10-31T02:15:41;11.40;99.90
56240;DHT22;42154;51.992;5.896;2023-10-31T02:18:07;11.40;99.90
56240;DHT22;42154;51.992;5.896;2023-10-31T02:20:33;11.40;99.90
56240;DHT22;42154;51.992;5.896;2023-10-31T02:22:59;11.40;99.90
56240;DHT22;42154;51.992;5.896;2023-10-31T02:25:25;11.40;99.90
56240;DHT22;42154;51.992;5.896;2023-10-31T02:27:51;11.50;99.90
56240;DHT22;42154;51.992;5.896;2023-10-31T02:30:17;11.50;99.90
56240;DHT22;42154;51.992;5.896;2023-10-31T02:32:43;11.50;99.90
56240;DHT22;42154;51.992;5.896;2023-10-31T02:35:09;11.50;99.90
56240;DHT22;42154;51.992;5.896;2023-10-31T02:37:35;11.50;99.90
56240;DHT22;42154;51.992;5.896;2023-10-31T02:40:01;11.50;99.90
56240;DHT22;42154;51.992;5.896;2023-10-31T02:42:27;11.50;99.90
56240;DHT22;42154;51.992;5.896;2023-10-31T02:44:53;11.50;99.90
56240;DHT22;42154;51.992;5.896;2023-10-31T02:47:19;11.50;99.90
56240;DHT22;42154;51.992;5.896;2023-10-31T02:49:45;11.60;99.90
56240;DHT22;42154;51.992;5.896;2023-10-31T02:52:11;11.50;99.90
56240;DHT22;42154;51.992;5.896;2023-10-31T02:54:38;11.50;99.90
56240;DHT22;42154;51.992;5.896;2023-10-31T02:57:04;11.50;99.90
56240;DHT22;42154;51.992;5.896;2023-10-31T02:59:29;11.50;99.90
56240;DHT22;42154;51.992;5.896;2023-10-31T03:01:57;11.50;99.90
56240;DHT22;42154;51.992;5.896;2023-10-31T03:04:23;11.50;99.90
56240;DHT22;42154;51.992;5.896;2023-10-31T03:06:49;11.50;99.90
56240;DHT22;42154;51.992;5.896;2023-10-31T03:09:15;11.50;99.90
56240;DHT22;42154;51.992;5.896;2023-10-31T03:11:41;11.50;99.90
56240;DHT22;42154;51.992;5.896;2023-10-31T03:14:07;11.60;99.90
56240;DHT22;42154;51.992;5.896;2023-10-31T03:16:32;11.50;99.90
56240;DHT22;42154;51.992;5.896;2023-10-31T03:18:59;11.50;99.90
56240;DHT22;42154;51.992;5.896;2023-10-31T03:21:25;11.50;99.90
56240;DHT22;42154;51.992;5.896;2023-10-31T03:23:51;11.50;99.90
56240;DHT22;42154;51.992;5.896;2023-10-31T03:26:19;11.60;99.90
56240;DHT22;42154;51.992;5.896;2023-10-31T03:28:45;11.50;99.90
56240;DHT22;42154;51.992;5.896;2023-10-31T03:31:11;11.60;99.90
56240;DHT22;42154;51.992;5.896;2023-10-31T03:33:38;11.50;99.90
56240;DHT22;42154;51.992;5.896;2023-10-31T03:36:04;11.60;99.90
56240;DHT22;42154;51.992;5.896;2023-10-31T03:38:34;11.50;99.90
56240;DHT22;42154;51.992;5.896;2023-10-31T03:41:00;11.50;99.90
56240;DHT22;42154;51.992;5.896;2023-10-31T03:43:26;11.50;99.90
56240;DHT22;42154;51.992;5.896;2023-10-31T03:45:52;11.60;99.90
56240;DHT22;42154;51.992;5.896;2023-10-31T03:48:18;11.50;99.90
56240;DHT22;42154;51.992;5.896;2023-10-31T03:50:44;11.50;99.90
56240;DHT22;42154;51.992;5.896;2023-10-31T03:53:10;11.50;99.90
56240;DHT22;42154;51.992;5.896;2023-10-31T03:55:36;11.50;99.90
56240;DHT22;42154;51.992;5.896;2023-10-31T03:58:02;11.50;99.90
56240;DHT22;42154;51.992;5.896;2023-10-31T04:00:27;11.40;99.90
56240;DHT22;42154;51.992;5.896;2023-10-31T04:02:53;11.40;99.90
56240;DHT22;42154;51.992;5.896;2023-10-31T04:05:19;11.40;99.90
56240;DHT22;42154;51.992;5.896;2023-10-31T04:07:48;11.50;99.90
56240;DHT22;42154;51.992;5.896;2023-10-31T04:10:15;11.50;99.90
56240;DHT22;42154;51.992;5.896;2023-10-31T04:12:41;11.50;99.90
56240;DHT22;42154;51.992;5.896;2023-10-31T04:15:08;11.40;99.90
56240;DHT22;42154;51.992;5.896;2023-10-31T04:17:34;11.40;99.90
56240;DHT22;42154;51.992;5.896;2023-10-31T04:20:00;11.40;99.90
56240;DHT22;42154;51.992;5.896;2023-10-31T04:22:26;11.40;99.90
56240;DHT22;42154;51.992;5.896;2023-10-31T04:24:51;11.40;99.90
56240;DHT22;42154;51.992;5.896;2023-10-31T04:27:17;11.40;99.90
56240;DHT22;42154;51.992;5.896;2023-10-31T04:29:44;11.40;99.90
56240;DHT22;42154;51.992;5.896;2023-10-31T04:32:10;11.40;99.90
56240;DHT22;42154;51.992;5.896;2023-10-31T04:34:35;11.40;99.90
56240;DHT22;42154;51.992;5.896;2023-10-31T04:37:01;11.40;99.90
56240;DHT22;42154;51.992;5.896;2023-10-31T04:39:27;11.40;99.90
56240;DHT22;42154;51.992;5.896;2023-10-31T04:41:53;11.40;99.90
56240;DHT22;42154;51.992;5.896;2023-10-31T04:44:19;11.30;99.90
56240;DHT22;42154;51.992;5.896;2023-10-31T04:46:44;11.30;99.90
56240;DHT22;42154;51.992;5.896;2023-10-31T04:49:10;11.30;99.90
56240;DHT22;42154;51.992;5.896;2023-10-31T04:51:37;11.30;99.90
56240;DHT22;42154;51.992;5.896;2023-10-31T04:54:03;11.30;99.90
56240;DHT22;42154;51.992;5.896;2023-10-31T04:56:29;11.30;99.90
56240;DHT22;42154;51.992;5.896;2023-10-31T04:58:55;11.30;99.90
56240;DHT22;42154;51.992;5.896;2023-10-31T05:01:21;11.30;99.90
56240;DHT22;42154;51.992;5.896;2023-10-31T05:03:47;11.20;99.90
56240;DHT22;42154;51.992;5.896;2023-10-31T05:06:12;11.30;99.90
56240;DHT22;42154;51.992;5.896;2023-10-31T05:08:38;11.20;99.90
56240;DHT22;42154;51.992;5.896;2023-10-31T05:11:04;11.30;99.90
56240;DHT22;42154;51.992;5.896;2023-10-31T05:13:30;11.30;99.90
56240;DHT22;42154;51.992;5.896;2023-10-31T05:15:55;11.30;99.90
56240;DHT22;42154;51.992;5.896;2023-10-31T05:18:21;11.20;99.90
56240;DHT22;42154;51.992;5.896;2023-10-31T05:20:47;11.30;99.90
56240;DHT22;42154;51.992;5.896;2023-10-31T05:23:13;11.30;99.90
56240;DHT22;42154;51.992;5.896;2023-10-31T05:25:39;11.20;99.90
56240;DHT22;42154;51.992;5.896;2023-10-31T05:28:05;11.20;99.90
56240;DHT22;42154;51.992;5.896;2023-10-31T05:30:31;11.20;99.90
56240;DHT22;42154;51.992;5.896;2023-10-31T05:32:56;11.20;99.90
56240;DHT22;42154;51.992;5.896;2023-10-31T05:35:22;11.20;99.90
56240;DHT22;42154;51.992;5.896;2023-10-31T05:37:48;11.20;99.90
56240;DHT22;42154;51.992;5.896;2023-10-31T05:40:15;11.20;99.90
56240;DHT22;42154;51.992;5.896;2023-10-31T05:42:41;11.20;99.90
56240;DHT22;42154;51.992;5.896;2023-10-31T05:45:08;11.30;99.90
56240;DHT22;42154;51.992;5.896;2023-10-31T05:47:34;11.20;99.90
56240;DHT22;42154;51.992;5.896;2023-10-31T05:49:59;11.20;99.90
56240;DHT22;42154;51.992;5.896;2023-10-31T05:52:29;11.20;99.90
56240;DHT22;42154;51.992;5.896;2023-10-31T05:54:58;11.20;99.90
56240;DHT22;42154;51.992;5.896;2023-10-31T05:57:24;11.20;99.90
56240;DHT22;42154;51.992;5.896;2023-10-31T05:59:49;11.20;99.90
56240;DHT22;42154;51.992;5.896;2023-10-31T06:02:15;11.20;99.90
56240;DHT22;42154;51.992;5.896;2023-10-31T06:04:41;11.20;99.90
56240;DHT22;42154;51.992;5.896;2023-10-31T06:07:07;11.20;99.90
56240;DHT22;42154;51.992;5.896;2023-10-31T06:09:33;11.10;99.90
56240;DHT22;42154;51.992;5.896;2023-10-31T06:12:00;11.20;99.90
56240;DHT22;42154;51.992;5.896;2023-10-31T06:14:25;11.20;99.90
56240;DHT22;42154;51.992;5.896;2023-10-31T06:16:51;11.20;99.90
56240;DHT22;42154;51.992;5.896;2023-10-31T06:19:17;11.10;99.90
56240;DHT22;42154;51.992;5.896;2023-10-31T06:21:43;11.00;99.90
56240;DHT22;42154;51.992;5.896;2023-10-31T06:24:09;11.00;99.90
56240;DHT22;42154;51.992;5.896;2023-10-31T06:26:35;11.00;99.90
56240;DHT22;42154;51.992;5.896;2023-10-31T06:29:01;10.90;99.90
56240;DHT22;42154;51.992;5.896;2023-10-31T06:31:27;10.90;99.90
56240;DHT22;42154;51.992;5.896;2023-10-31T06:33:52;10.90;99.90
56240;DHT22;42154;51.992;5.896;2023-10-31T06:36:18;10.90;99.90
56240;DHT22;42154;51.992;5.896;2023-10-31T06:38:44;10.90;99.90
56240;DHT22;42154;51.992;5.896;2023-10-31T06:41:10;10.80;99.90
56240;DHT22;42154;51.992;5.896;2023-10-31T06:43:35;10.80;99.90
56240;DHT22;42154;51.992;5.896;2023-10-31T06:46:02;10.80;99.90
56240;DHT22;42154;51.992;5.896;2023-10-31T06:48:29;10.90;99.90
56240;DHT22;42154;51.992;5.896;2023-10-31T06:50:55;10.90;99.90
56240;DHT22;42154;51.992;5.896;2023-10-31T06:53:21;10.90;99.90
56240;DHT22;42154;51.992;5.896;2023-10-31T06:55:46;10.90;99.90
56240;DHT22;42154;51.992;5.896;2023-10-31T06:58:12;11.00;99.90
56240;DHT22;42154;51.992;5.896;2023-10-31T07:00:38;11.00;99.90
56240;DHT22;42154;51.992;5.896;2023-10-31T07:03:04;11.10;99.90
56240;DHT22;42154;51.992;5.896;2023-10-31T07:05:35;11.10;99.90
56240;DHT22;42154;51.992;5.896;2023-10-31T07:08:01;11.20;99.90
56240;DHT22;42154;51.992;5.896;2023-10-31T07:10:28;11.20;99.90
56240;DHT22;42154;51.992;5.896;2023-10-31T07:12:54;11.20;99.90
56240;DHT22;42154;51.992;5.896;2023-10-31T07:15:19;11.20;99.90
56240;DHT22;42154;51.992;5.896;2023-10-31T07:17:46;11.30;99.90
56240;DHT22;42154;51.992;5.896;2023-10-31T07:20:12;11.30;99.90
56240;DHT22;42154;51.992;5.896;2023-10-31T07:22:38;11.30;99.90
56240;DHT22;42154;51.992;5.896;2023-10-31T07:25:06;11.30;99.90
56240;DHT22;42154;51.992;5.896;2023-10-31T07:27:32;11.30;99.90
56240;DHT22;42154;51.992;5.896;2023-10-31T07:29:57;11.30;99.90
56240;DHT22;42154;51.992;5.896;2023-10-31T07:32:24;11.30;99.90
56240;DHT22;42154;51.992;5.896;2023-10-31T07:34:50;11.40;99.90
56240;DHT22;42154;51.992;5.896;2023-10-31T07:37:16;11.40;99.90
56240;DHT22;42154;51.992;5.896;2023-10-31T07:39:41;11.30;99.90
56240;DHT22;42154;51.992;5.896;2023-10-31T07:42:07;11.40;99.90
56240;DHT22;42154;51.992;5.896;2023-10-31T07:44:33;11.40;99.90
56240;DHT22;42154;51.992;5.896;2023-10-31T07:46:59;11.40;99.90
56240;DHT22;42154;51.992;5.896;2023-10-31T07:49:25;11.40;99.90
56240;DHT22;42154;51.992;5.896;2023-10-31T07:51:51;11.50;99.90
56240;DHT22;42154;51.992;5.896;2023-10-31T07:54:16;11.50;99.90
56240;DHT22;42154;51.992;5.896;2023-10-31T07:56:42;11.50;99.90
56240;DHT22;42154;51.992;5.896;2023-10-31T07:59:08;11.50;99.90
56240;DHT22;42154;51.992;5.896;2023-10-31T08:01:34;11.50;99.90
56240;DHT22;42154;51.992;5.896;2023-10-31T08:04:01;11.50;99.90
56240;DHT22;42154;51.992;5.896;2023-10-31T08:06:27;11.50;99.90
56240;DHT22;42154;51.992;5.896;2023-10-31T08:08:52;11.50;99.90
56240;DHT22;42154;51.992;5.896;2023-10-31T08:11:18;11.60;99.90
56240;DHT22;42154;51.992;5.896;2023-10-31T08:13:44;11.60;99.90
56240;DHT22;42154;51.992;5.896;2023-10-31T08:16:10;11.70;99.90
56240;DHT22;42154;51.992;5.896;2023-10-31T08:18:36;11.70;99.90
56240;DHT22;42154;51.992;5.896;2023-10-31T08:21:03;11.80;99.90
56240;DHT22;42154;51.992;5.896;2023-10-31T08:23:29;11.90;99.90
56240;DHT22;42154;51.992;5.896;2023-10-31T08:25:55;12.00;99.90
56240;DHT22;42154;51.992;5.896;2023-10-31T08:28:21;12.00;99.90
56240;DHT22;42154;51.992;5.896;2023-10-31T08:30:46;12.10;99.90
56240;DHT22;42154;51.992;5.896;2023-10-31T08:33:13;12.10;99.90
56240;DHT22;42154;51.992;5.896;2023-10-31T08:35:39;12.20;99.90
56240;DHT22;42154;51.992;5.896;2023-10-31T08:38:05;12.20;99.90
56240;DHT22;42154;51.992;5.896;2023-10-31T08:40:31;12.20;99.90
56240;DHT22;42154;51.992;5.896;2023-10-31T08:42:57;12.30;99.90
56240;DHT22;42154;51.992;5.896;2023-10-31T08:45:22;12.30;99.90
56240;DHT22;42154;51.992;5.896;2023-10-31T08:47:48;12.30;99.90
56240;DHT22;42154;51.992;5.896;2023-10-31T08:50:14;12.30;99.90
56240;DHT22;42154;51.992;5.896;2023-10-31T08:52:40;12.30;99.90
56240;DHT22;42154;51.992;5.896;2023-10-31T08:55:06;12.40;99.90
56240;DHT22;42154;51.992;5.896;2023-10-31T08:57:32;12.40;99.90
56240;DHT22;42154;51.992;5.896;2023-10-31T08:59:59;12.50;99.90
56240;DHT22;42154;51.992;5.896;2023-10-31T09:02:25;12.50;99.90
56240;DHT22;42154;51.992;5.896;2023-10-31T09:04:52;12.50;99.90
56240;DHT22;42154;51.992;5.896;2023-10-31T09:07:18;12.50;99.90
56240;DHT22;42154;51.992;5.896;2023-10-31T10:25:42;12.80;99.90
56240;DHT22;42154;51.992;5.896;2023-10-31T10:28:08;12.80;99.90
56240;DHT22;42154;51.992;5.896;2023-10-31T10:30:38;12.80;99.90
56240;DHT22;42154;51.992;5.896;2023-10-31T10:33:03;12.90;99.90
56240;DHT22;42154;51.992;5.896;2023-10-31T10:35:29;12.90;99.90
56240;DHT22;42154;51.992;5.896;2023-10-31T10:37:55;13.00;99.90
56240;DHT22;42154;51.992;5.896;2023-10-31T10:40:22;13.00;99.90
56240;DHT22;42154;51.992;5.896;2023-10-31T10:42:47;13.10;99.90
56240;DHT22;42154;51.992;5.896;2023-10-31T10:45:16;13.20;99.90
56240;DHT22;42154;51.992;5.896;2023-10-31T10:47:47;13.30;99.90
56240;DHT22;42154;51.992;5.896;2023-10-31T10:50:13;13.50;99.90
56240;DHT22;42154;51.992;5.896;2023-10-31T10:52:49;13.60;99.90
56240;DHT22;42154;51.992;5.896;2023-10-31T10:55:21;13.80;99.90
56240;DHT22;42154;51.992;5.896;2023-10-31T10:58:05;13.90;99.90
56240;DHT22;42154;51.992;5.896;2023-10-31T11:00:31;13.80;99.90
56240;DHT22;42154;51.992;5.896;2023-10-31T11:02:57;13.80;99.90
56240;DHT22;42154;51.992;5.896;2023-10-31T11:05:24;13.80;99.90
56240;DHT22;42154;51.992;5.896;2023-10-31T11:07:51;13.90;99.90
56240;DHT22;42154;51.992;5.896;2023-10-31T11:10:18;14.00;99.90
56240;DHT22;42154;51.992;5.896;2023-10-31T11:12:44;14.00;99.90
56240;DHT22;42154;51.992;5.896;2023-10-31T11:15:12;14.00;99.90
56240;DHT22;42154;51.992;5.896;2023-10-31T11:17:42;13.90;99.90
56240;DHT22;42154;51.992;5.896;2023-10-31T11:20:10;13.90;99.90
56240;DHT22;42154;51.992;5.896;2023-10-31T11:22:44;13.80;99.90
56240;DHT22;42154;51.992;5.896;2023-10-31T11:25:17;13.70;99.90
56240;DHT22;42154;51.992;5.896;2023-10-31T11:27:43;13.70;99.90
56240;DHT22;42154;51.992;5.896;2023-10-31T11:30:30;13.60;99.90
56240;DHT22;42154;51.992;5.896;2023-10-31T11:33:00;13.60;99.90
56240;DHT22;42154;51.992;5.896;2023-10-31T11:35:30;13.60;99.90
56240;DHT22;42154;51.992;5.896;2023-10-31T11:38:06;13.60;99.90
56240;DHT22;42154;51.992;5.896;2023-10-31T11:40:33;13.70;99.90
56240;DHT22;42154;51.992;5.896;2023-10-31T11:43:02;13.70;99.90
56240;DHT22;42154;51.992;5.896;2023-10-31T11:48:03;14.10;99.90
56240;DHT22;42154;51.992;5.896;2023-10-31T11:50:33;14.30;99.90
56240;DHT22;42154;51.992;5.896;2023-10-31T11:53:10;14.40;99.90
56240;DHT22;42154;51.992;5.896;2023-10-31T11:55:43;14.50;99.90
56240;DHT22;42154;51.992;5.896;2023-10-31T11:58:22;14.50;99.90
56240;DHT22;42154;51.992;5.896;2023-10-31T12:00:52;14.50;99.90
56240;DHT22;42154;51.992;5.896;2023-10-31T12:03:21;14.40;99.90
56240;DHT22;42154;51.992;5.896;2023-10-31T12:05:59;14.40;99.90
56240;DHT22;42154;51.992;5.896;2023-10-31T12:08:30;14.40;99.90
56240;DHT22;42154;51.992;5.896;2023-10-31T12:11:10;14.40;99.90
56240;DHT22;42154;51.992;5.896;2023-10-31T12:13:38;14.40;99.90
56240;DHT22;42154;51.992;5.896;2023-10-31T12:16:05;14.50;99.90
56240;DHT22;42154;51.992;5.896;2023-10-31T12:18:36;14.60;99.90
56240;DHT22;42154;51.992;5.896;2023-10-31T12:21:02;14.60;99.90
56240;DHT22;42154;51.992;5.896;2023-10-31T12:23:28;14.70;99.90
56240;DHT22;42154;51.992;5.896;2023-10-31T12:25:54;14.80;99.90
56240;DHT22;42154;51.992;5.896;2023-10-31T12:28:21;14.80;99.90
56240;DHT22;42154;51.992;5.896;2023-10-31T12:30:48;14.70;99.90
56240;DHT22;42154;51.992;5.896;2023-10-31T12:33:15;14.70;99.90
56240;DHT22;42154;51.992;5.896;2023-10-31T12:35:42;14.60;99.90
56240;DHT22;42154;51.992;5.896;2023-10-31T12:38:13;14.50;99.90
56240;DHT22;42154;51.992;5.896;2023-10-31T12:40:40;14.40;99.90
56240;DHT22;42154;51.992;5.896;2023-10-31T12:43:08;14.30;99.90
56240;DHT22;42154;51.992;5.896;2023-10-31T12:45:34;14.20;99.90
56240;DHT22;42154;51.992;5.896;2023-10-31T12:48:04;14.20;99.90
56240;DHT22;42154;51.992;5.896;2023-10-31T12:50:31;14.10;99.90
56240;DHT22;42154;51.992;5.896;2023-10-31T12:52:57;14.10;99.90
56240;DHT22;42154;51.992;5.896;2023-10-31T12:55:24;14.10;99.90
56240;DHT22;42154;51.992;5.896;2023-10-31T12:57:51;14.10;99.90
56240;DHT22;42154;51.992;5.896;2023-10-31T13:00:18;14.10;99.90
56240;DHT22;42154;51.992;5.896;2023-10-31T13:02:50;14.00;99.90
56240;DHT22;42154;51.992;5.896;2023-10-31T13:05:17;14.00;99.90
56240;DHT22;42154;51.992;5.896;2023-10-31T13:07:50;14.00;99.90
56240;DHT22;42154;51.992;5.896;2023-10-31T13:10:17;13.90;99.90
56240;DHT22;42154;51.992;5.896;2023-10-31T13:12:44;13.90;99.90
56240;DHT22;42154;51.992;5.896;2023-10-31T13:15:11;13.90;99.90
56240;DHT22;42154;51.992;5.896;2023-10-31T13:17:36;13.90;99.90
56240;DHT22;42154;51.992;5.896;2023-10-31T13:20:05;14.00;99.90
56240;DHT22;42154;51.992;5.896;2023-10-31T13:22:32;14.00;99.90
56240;DHT22;42154;51.992;5.896;2023-10-31T13:24:57;14.10;99.90
56240;DHT22;42154;51.992;5.896;2023-10-31T13:27:23;14.10;99.90
56240;DHT22;42154;51.992;5.896;2023-10-31T13:29:49;14.10;99.90
56240;DHT22;42154;51.992;5.896;2023-10-31T13:32:16;14.10;99.90
56240;DHT22;42154;51.992;5.896;2023-10-31T13:34:41;14.30;99.90
56240;DHT22;42154;51.992;5.896;2023-10-31T13:37:07;14.40;99.90
56240;DHT22;42154;51.992;5.896;2023-10-31T13:39:34;14.60;99.90
56240;DHT22;42154;51.992;5.896;2023-10-31T13:41:59;14.70;99.90
56240;DHT22;42154;51.992;5.896;2023-10-31T13:44:25;14.70;99.90
56240;DHT22;42154;51.992;5.896;2023-10-31T13:46:51;14.60;99.90
56240;DHT22;42154;51.992;5.896;2023-10-31T13:49:16;14.50;99.90
56240;DHT22;42154;51.992;5.896;2023-10-31T13:51:42;14.40;99.90
56240;DHT22;42154;51.992;5.896;2023-10-31T13:54:08;14.40;99.90
56240;DHT22;42154;51.992;5.896;2023-10-31T13:56:33;14.30;99.90
56240;DHT22;42154;51.992;5.896;2023-10-31T13:58:59;14.30;99.90
56240;DHT22;42154;51.992;5.896;2023-10-31T14:01:25;14.30;99.90
56240;DHT22;42154;51.992;5.896;2023-10-31T14:03:51;14.20;99.90
56240;DHT22;42154;51.992;5.896;2023-10-31T14:06:17;14.10;99.90
56240;DHT22;42154;51.992;5.896;2023-10-31T14:08:43;14.10;99.90
56240;DHT22;42154;51.992;5.896;2023-10-31T14:11:09;14.10;99.90
56240;DHT22;42154;51.992;5.896;2023-10-31T14:13:37;14.00;99.90
56240;DHT22;42154;51.992;5.896;2023-10-31T14:16:04;13.90;99.90
56240;DHT22;42154;51.992;5.896;2023-10-31T14:18:30;13.90;99.90
56240;DHT22;42154;51.992;5.896;2023-10-31T14:20:56;13.80;99.90
56240;DHT22;42154;51.992;5.896;2023-10-31T14:23:22;13.80;99.90
56240;DHT22;42154;51.992;5.896;2023-10-31T14:25:48;13.70;99.90
56240;DHT22;42154;51.992;5.896;2023-10-31T14:28:14;13.70;99.90
56240;DHT22;42154;51.992;5.896;2023-10-31T14:30:39;13.70;99.90
56240;DHT22;42154;51.992;5.896;2023-10-31T14:33:05;13.70;99.90
56240;DHT22;42154;51.992;5.896;2023-10-31T14:35:31;13.70;99.90
56240;DHT22;42154;51.992;5.896;2023-10-31T14:37:57;13.70;99.90
56240;DHT22;42154;51.992;5.896;2023-10-31T14:40:22;13.60;99.90
56240;DHT22;42154;51.992;5.896;2023-10-31T14:42:48;13.60;99.90
56240;DHT22;42154;51.992;5.896;2023-10-31T14:45:15;13.50;99.90
56240;DHT22;42154;51.992;5.896;2023-10-31T14:47:40;13.50;99.90
56240;DHT22;42154;51.992;5.896;2023-10-31T14:50:07;13.50;99.90
56240;DHT22;42154;51.992;5.896;2023-10-31T14:52:32;13.60;99.90
56240;DHT22;42154;51.992;5.896;2023-10-31T14:54:58;13.60;99.90
56240;DHT22;42154;51.992;5.896;2023-10-31T14:57:24;13.70;99.90
56240;DHT22;42154;51.992;5.896;2023-10-31T14:59:50;13.60;99.90
56240;DHT22;42154;51.992;5.896;2023-10-31T15:02:15;13.60;99.90
56240;DHT22;42154;51.992;5.896;2023-10-31T15:04:41;13.60;99.90
56240;DHT22;42154;51.992;5.896;2023-10-31T15:07:07;13.70;99.90
56240;DHT22;42154;51.992;5.896;2023-10-31T15:09:32;13.60;99.90
56240;DHT22;42154;51.992;5.896;2023-10-31T15:11:58;13.60;99.90
56240;DHT22;42154;51.992;5.896;2023-10-31T15:14:24;13.60;99.90
56240;DHT22;42154;51.992;5.896;2023-10-31T15:16:50;13.60;99.90
56240;DHT22;42154;51.992;5.896;2023-10-31T15:19:15;13.60;99.90
56240;DHT22;42154;51.992;5.896;2023-10-31T15:21:41;13.50;99.90
56240;DHT22;42154;51.992;5.896;2023-10-31T15:24:07;13.50;99.90
56240;DHT22;42154;51.992;5.896;2023-10-31T15:26:35;13.50;99.90
56240;DHT22;42154;51.992;5.896;2023-10-31T15:29:01;13.40;99.90
56240;DHT22;42154;51.992;5.896;2023-10-31T15:31:28;13.40;99.90
56240;DHT22;42154;51.992;5.896;2023-10-31T15:33:53;13.40;99.90
56240;DHT22;42154;51.992;5.896;2023-10-31T15:36:19;13.40;99.90
56240;DHT22;42154;51.992;5.896;2023-10-31T15:38:45;13.40;99.90
56240;DHT22;42154;51.992;5.896;2023-10-31T15:41:11;13.40;99.90
56240;DHT22;42154;51.992;5.896;2023-10-31T15:43:38;13.40;99.90
56240;DHT22;42154;51.992;5.896;2023-10-31T15:46:03;13.40;99.90
56240;DHT22;42154;51.992;5.896;2023-10-31T15:48:29;13.30;99.90
56240;DHT22;42154;51.992;5.896;2023-10-31T15:50:55;13.30;99.90
56240;DHT22;42154;51.992;5.896;2023-10-31T15:53:21;13.30;99.90
56240;DHT22;42154;51.992;5.896;2023-10-31T15:55:48;13.30;99.90
56240;DHT22;42154;51.992;5.896;2023-10-31T15:58:14;13.30;99.90
56240;DHT22;42154;51.992;5.896;2023-10-31T16:00:39;13.20;99.90
56240;DHT22;42154;51.992;5.896;2023-10-31T16:03:05;13.20;99.90
56240;DHT22;42154;51.992;5.896;2023-10-31T16:05:31;13.20;99.90
56240;DHT22;42154;51.992;5.896;2023-10-31T16:07:57;13.20;99.90
56240;DHT22;42154;51.992;5.896;2023-10-31T16:10:23;13.10;99.90
56240;DHT22;42154;51.992;5.896;2023-10-31T16:12:49;13.10;99.90
56240;DHT22;42154;51.992;5.896;2023-10-31T16:15:14;13.10;99.90
56240;DHT22;42154;51.992;5.896;2023-10-31T16:17:40;13.10;99.90
56240;DHT22;42154;51.992;5.896;2023-10-31T16:20:07;13.10;99.90
56240;DHT22;42154;51.992;5.896;2023-10-31T16:22:32;13.10;99.90
56240;DHT22;42154;51.992;5.896;2023-10-31T16:24:58;13.00;99.90
56240;DHT22;42154;51.992;5.896;2023-10-31T16:27:24;13.00;99.90
56240;DHT22;42154;51.992;5.896;2023-10-31T16:29:50;13.00;99.90
56240;DHT22;42154;51.992;5.896;2023-10-31T16:32:15;13.00;99.90
56240;DHT22;42154;51.992;5.896;2023-10-31T16:34:41;13.00;99.90
56240;DHT22;42154;51.992;5.896;2023-10-31T16:37:12;13.00;99.90
56240;DHT22;42154;51.992;5.896;2023-10-31T16:39:37;12.90;99.90
56240;DHT22;42154;51.992;5.896;2023-10-31T16:42:03;12.90;99.90
56240;DHT22;42154;51.992;5.896;2023-10-31T16:44:29;12.90;99.90